createdAt,value
2022-10-22T00:01:01.506Z,98211.14
2022-10-22T00:03:28.126Z,98216.77
2022-10-22T00:05:54.778Z,98216.34
2022-10-22T00:08:21.388Z,98212.28
2022-10-22T00:10:47.903Z,98217.40
2022-10-22T00:13:14.869Z,98217.59
2022-10-22T00:15:43.224Z,98206.47
2022-10-22T00:18:09.877Z,98204.73
2022-10-22T00:20:36.669Z,98199.45
2022-10-22T00:23:03.412Z,98200.02
2022-10-22T00:25:29.947Z,98203.05
2022-10-22T00:27:56.419Z,98197.06
2022-10-22T00:30:22.900Z,98194.30
2022-10-22T00:32:49.486Z,98199.16
2022-10-22T00:35:16.077Z,98204.55
2022-10-22T00:37:42.648Z,98203.52
2022-10-22T00:40:10.315Z,98203.40
2022-10-22T00:42:37.084Z,98204.93
2022-10-22T00:45:25.418Z,98204.93
2022-10-22T00:48:04.554Z,98204.67
2022-10-22T00:50:39.206Z,98193.54
2022-10-22T00:53:10.763Z,98191.23
2022-10-22T00:55:37.809Z,98191.48
2022-10-22T00:58:04.824Z,98191.02
2022-10-22T01:00:31.862Z,98185.79
2022-10-22T01:02:59.460Z,98185.07
2022-10-22T01:05:32.480Z,98186.59
2022-10-22T01:07:59.271Z,98185.90
2022-10-22T01:10:52.571Z,98185.69
2022-10-22T01:13:25.965Z,98184.61
2022-10-22T01:16:12.692Z,98182.50
2022-10-22T01:19:01.368Z,98183.61
2022-10-22T01:21:44.604Z,98178.02
2022-10-22T01:24:24.424Z,98174.32
2022-10-22T01:27:09.532Z,98176.94
2022-10-22T01:29:49.554Z,98174.34
2022-10-22T01:32:21.164Z,98173.04
2022-10-22T01:34:52.981Z,98174.58
2022-10-22T01:37:23.032Z,98178.02
2022-10-22T01:39:50.683Z,98174.73
2022-10-22T01:42:17.402Z,98169.88
2022-10-22T01:44:44.064Z,98172.61
2022-10-22T01:47:43.331Z,98177.63
2022-10-22T01:50:10.021Z,98186.44
2022-10-22T01:52:51.811Z,98185.77
2022-10-22T01:55:31.068Z,98185.73
2022-10-22T01:58:03.602Z,98185.80
2022-10-22T02:00:30.705Z,98182.77
2022-10-22T02:03:43.863Z,98180.02
2022-10-22T02:06:17.501Z,98187.83
2022-10-22T02:08:45.611Z,98192.46
2022-10-22T02:11:13.863Z,98187.80
2022-10-22T02:13:44.608Z,98190.30
2022-10-22T02:16:16.149Z,98189.92
2022-10-22T02:18:45.282Z,98185.46
2022-10-22T02:21:12.200Z,98175.86
2022-10-22T02:23:39.523Z,98174.76
2022-10-22T02:26:35.197Z,98179.63
2022-10-22T02:29:20.570Z,98180.04
2022-10-22T02:31:49.056Z,98166.09
2022-10-22T02:34:21.976Z,98161.64
2022-10-22T02:36:50.950Z,98163.61
2022-10-22T02:39:20.673Z,98167.35
2022-10-22T02:41:48.365Z,98167.73
2022-10-22T02:44:14.866Z,98158.30
2022-10-22T02:46:43.653Z,98153.01
2022-10-22T02:49:12.242Z,98154.27
2022-10-22T02:51:38.656Z,98156.23
2022-10-22T02:54:05.319Z,98157.80
2022-10-22T02:56:31.808Z,98158.02
2022-10-22T02:58:58.499Z,98151.46
2022-10-22T03:01:25.000Z,98148.65
2022-10-22T03:03:51.681Z,98145.34
2022-10-22T03:06:18.558Z,98149.52
2022-10-22T03:08:45.552Z,98144.27
2022-10-22T03:11:12.527Z,98136.77
2022-10-22T03:13:39.067Z,98134.54
2022-10-22T03:16:06.228Z,98139.11
2022-10-22T03:18:32.766Z,98148.21
2022-10-22T03:21:11.388Z,98151.99
2022-10-22T03:23:40.692Z,98150.46
2022-10-22T03:26:07.949Z,98157.02
2022-10-22T03:28:36.128Z,98154.73
2022-10-22T03:31:02.944Z,98155.22
2022-10-22T03:33:29.387Z,98152.81
2022-10-22T03:35:55.863Z,98160.23
2022-10-22T03:38:22.392Z,98159.36
2022-10-22T03:40:49.033Z,98163.48
2022-10-22T03:43:16.702Z,98164.29
2022-10-22T03:45:43.247Z,98167.77
2022-10-22T03:48:09.884Z,98168.61
2022-10-22T03:50:36.425Z,98163.58
2022-10-22T03:53:04.295Z,98171.95
2022-10-22T03:55:30.910Z,98174.27
2022-10-22T03:57:57.376Z,98167.70
2022-10-22T04:00:23.918Z,98155.82
2022-10-22T04:02:50.561Z,98154.34
2022-10-22T04:05:17.304Z,98149.61
2022-10-22T04:07:43.994Z,98150.59
2022-10-22T04:10:10.638Z,98138.16
2022-10-22T04:12:37.129Z,98127.92
2022-10-22T04:15:04.692Z,98128.37
2022-10-22T04:17:35.796Z,98126.23
2022-10-22T04:20:03.610Z,98123.92
2022-10-22T04:22:32.935Z,98125.54
2022-10-22T04:24:59.450Z,98124.52
2022-10-22T04:27:26.023Z,98117.45
2022-10-22T04:29:52.526Z,98119.64
2022-10-22T04:32:18.946Z,98119.77
2022-10-22T04:34:45.376Z,98119.11
2022-10-22T04:37:11.939Z,98123.96
2022-10-22T04:39:38.422Z,98129.16
2022-10-22T04:42:04.969Z,98126.41
2022-10-22T04:44:31.561Z,98125.10
2022-10-22T04:46:58.120Z,98124.55
2022-10-22T04:49:24.762Z,98127.77
2022-10-22T04:51:51.278Z,98116.20
2022-10-22T04:54:17.973Z,98107.77
2022-10-22T04:56:44.457Z,98105.37
2022-10-22T04:59:12.231Z,98105.53
2022-10-22T05:01:42.986Z,98102.05
2022-10-22T05:04:15.925Z,98099.35
2022-10-22T05:06:43.530Z,98097.40
2022-10-22T05:09:15.983Z,98089.23
2022-10-22T05:11:44.996Z,98084.81
2022-10-22T05:14:12.469Z,98090.80
2022-10-22T05:16:39.226Z,98100.16
2022-10-22T05:19:07.306Z,98108.58
2022-10-22T05:21:34.556Z,98117.35
2022-10-22T05:24:01.064Z,98126.47
2022-10-22T05:26:28.955Z,98143.99
2022-10-22T05:28:55.496Z,98146.02
2022-10-22T05:31:22.281Z,98155.95
2022-10-22T05:33:48.983Z,98160.75
2022-10-22T05:36:18.813Z,98168.98
2022-10-22T05:38:46.090Z,98177.52
2022-10-22T05:41:15.399Z,98174.48
2022-10-22T05:43:41.906Z,98173.36
2022-10-22T05:46:19.823Z,98174.96
2022-10-22T05:48:53.318Z,98171.84
2022-10-22T05:51:20.812Z,98173.41
2022-10-22T05:53:52.152Z,98168.14
2022-10-22T05:56:18.671Z,98167.47
2022-10-22T05:58:46.068Z,98177.33
2022-10-22T06:01:20.937Z,98179.58
2022-10-22T06:03:48.636Z,98185.52
2022-10-22T06:06:30.441Z,98184.06
2022-10-22T06:09:05.637Z,98187.58
2022-10-22T06:11:34.991Z,98183.77
2022-10-22T06:14:02.138Z,98183.02
2022-10-22T06:16:29.829Z,98173.33
2022-10-22T06:18:56.650Z,98169.05
2022-10-22T06:21:23.192Z,98171.30
2022-10-22T06:23:49.736Z,98170.14
2022-10-22T06:26:16.260Z,98171.49
2022-10-22T06:28:42.667Z,98172.62
2022-10-22T06:31:09.876Z,98166.13
2022-10-22T06:33:36.286Z,98168.33
2022-10-22T06:36:11.175Z,98179.92
2022-10-22T06:38:38.339Z,98184.36
2022-10-22T06:41:13.777Z,98185.55
2022-10-22T06:43:41.568Z,98183.44
2022-10-22T06:46:09.921Z,98184.58
2022-10-22T06:48:37.393Z,98185.60
2022-10-22T06:51:06.262Z,98182.27
2022-10-22T06:53:33.316Z,98185.49
2022-10-22T06:56:14.840Z,98184.90
2022-10-22T06:58:41.753Z,98181.20
2022-10-22T07:01:11.156Z,98182.82
2022-10-22T07:03:39.063Z,98184.54
2022-10-22T07:06:09.182Z,98186.63
2022-10-22T07:08:36.475Z,98185.95
2022-10-22T07:11:30.808Z,98183.58
2022-10-22T07:14:00.772Z,98185.56
2022-10-22T07:16:32.058Z,98183.94
2022-10-22T07:19:00.368Z,98174.29
2022-10-22T07:21:26.897Z,98161.42
2022-10-22T07:23:53.597Z,98161.20
2022-10-22T07:26:20.059Z,98163.27
2022-10-22T07:28:47.541Z,98169.09
2022-10-22T07:31:17.561Z,98167.45
2022-10-22T07:33:44.195Z,98168.55
2022-10-22T07:36:13.726Z,98167.77
2022-10-22T07:38:40.258Z,98171.13
2022-10-22T07:41:06.751Z,98166.77
2022-10-22T07:43:33.237Z,98174.31
2022-10-22T07:45:59.677Z,98174.70
2022-10-22T07:48:26.196Z,98176.48
2022-10-22T07:50:52.629Z,98177.36
2022-10-22T07:53:19.605Z,98184.14
2022-10-22T07:55:52.835Z,98191.09
2022-10-22T07:58:20.581Z,98195.28
2022-10-22T08:00:48.458Z,98191.41
2022-10-22T08:03:16.163Z,98183.14
2022-10-22T08:05:43.247Z,98174.73
2022-10-22T08:08:11.034Z,98162.27
2022-10-22T08:10:38.494Z,98164.92
2022-10-22T08:13:05.954Z,98162.27
2022-10-22T08:15:32.568Z,98152.75
2022-10-22T08:17:59.137Z,98148.67
2022-10-22T08:20:26.053Z,98143.96
2022-10-22T08:22:52.629Z,98131.73
2022-10-22T08:25:19.476Z,98127.48
2022-10-22T08:27:46.377Z,98122.19
2022-10-22T08:30:13.890Z,98123.67
2022-10-22T08:32:41.386Z,98127.14
2022-10-22T08:35:08.299Z,98133.31
2022-10-22T08:37:35.696Z,98136.93
2022-10-22T08:40:02.918Z,98142.02
2022-10-22T08:43:03.764Z,98152.40
2022-10-22T08:45:47.309Z,98160.66
2022-10-22T08:48:28.874Z,98155.08
2022-10-22T08:50:57.614Z,98147.83
2022-10-22T08:53:48.911Z,98149.52
2022-10-22T08:56:15.864Z,98160.87
2022-10-22T08:58:57.155Z,98170.23
2022-10-22T09:01:47.888Z,98168.45
2022-10-22T09:04:31.393Z,98166.06
2022-10-22T09:06:59.706Z,98175.59
2022-10-22T09:09:31.949Z,98182.39
2022-10-22T09:12:00.674Z,98195.08
2022-10-22T09:14:27.491Z,98197.77
2022-10-22T09:17:25.885Z,98199.87
2022-10-22T09:20:13.650Z,98202.35
2022-10-22T09:23:15.282Z,98197.84
2022-10-22T09:25:42.845Z,98198.11
2022-10-22T09:28:09.905Z,98191.26
2022-10-22T09:30:38.104Z,98194.42
2022-10-22T09:33:07.792Z,98197.92
2022-10-22T09:35:44.191Z,98191.95
2022-10-22T09:38:14.608Z,98190.44
2022-10-22T09:40:47.378Z,98189.23
2022-10-22T09:43:14.809Z,98192.48
2022-10-22T09:45:42.817Z,98184.36
2022-10-22T09:48:22.690Z,98187.98
2022-10-22T09:50:57.199Z,98196.63
2022-10-22T09:53:29.055Z,98195.43
2022-10-22T09:55:59.409Z,98197.86
2022-10-22T09:58:26.863Z,98194.67
2022-10-22T10:00:59.286Z,98200.98
2022-10-22T10:03:32.323Z,98192.77
2022-10-22T10:06:04.793Z,98182.04
2022-10-22T10:08:33.011Z,98176.71
2022-10-22T10:11:02.403Z,98172.96
2022-10-22T10:13:39.674Z,98166.50
2022-10-22T10:16:15.841Z,98163.23
2022-10-22T10:19:20.350Z,98159.91
2022-10-22T10:22:11.102Z,98158.13
2022-10-22T10:25:24.123Z,98160.66
2022-10-22T10:28:16.683Z,98169.07
2022-10-22T10:31:03.163Z,98181.98
2022-10-22T10:33:44.863Z,98177.21
2022-10-22T10:36:29.542Z,98167.92
2022-10-22T10:39:03.135Z,98162.09
2022-10-22T10:41:45.666Z,98168.74
2022-10-22T10:44:51.101Z,98174.45
2022-10-22T10:47:29.521Z,98167.75
2022-10-22T10:50:14.080Z,98162.67
2022-10-22T10:52:50.064Z,98165.47
2022-10-22T10:55:30.790Z,98167.88
2022-10-22T10:58:21.545Z,98157.41
2022-10-22T11:01:03.409Z,98153.52
2022-10-22T11:03:57.195Z,98153.84
2022-10-22T11:06:25.923Z,98151.01
2022-10-22T11:09:02.547Z,98152.34
2022-10-22T11:11:47.470Z,98151.02
2022-10-22T11:14:29.970Z,98149.20
2022-10-22T11:17:17.210Z,98140.29
2022-10-22T11:20:12.394Z,98136.52
2022-10-22T11:23:13.062Z,98134.56
2022-10-22T11:25:47.082Z,98134.90
2022-10-22T11:28:23.907Z,98138.37
2022-10-22T11:30:59.364Z,98142.73
2022-10-22T11:33:33.441Z,98139.76
2022-10-22T11:36:02.808Z,98135.57
2022-10-22T11:38:31.712Z,98138.81
2022-10-22T11:41:13.973Z,98137.92
2022-10-22T11:44:08.001Z,98139.24
2022-10-22T11:46:44.309Z,98142.37
2022-10-22T11:49:13.881Z,98148.48
2022-10-22T11:51:43.187Z,98153.00
2022-10-22T11:54:28.471Z,98159.91
2022-10-22T11:57:20.239Z,98157.11
2022-10-22T11:59:46.851Z,98156.52
2022-10-22T12:02:45.966Z,98156.42
2022-10-22T12:05:24.475Z,98158.63
2022-10-22T12:07:55.730Z,98160.39
2022-10-22T12:10:28.513Z,98161.31
2022-10-22T12:13:10.931Z,98159.44
2022-10-22T12:15:47.969Z,98159.43
2022-10-22T12:18:16.457Z,98159.08
2022-10-22T12:20:43.042Z,98161.36
2022-10-22T12:23:12.624Z,98155.58
2022-10-22T12:25:39.394Z,98158.45
2022-10-22T12:28:12.227Z,98156.59
2022-10-22T12:30:39.237Z,98152.19
2022-10-22T12:33:08.078Z,98151.34
2022-10-22T12:35:43.510Z,98146.63
2022-10-22T12:38:16.877Z,98146.45
2022-10-22T12:40:47.469Z,98145.66
2022-10-22T12:43:20.423Z,98141.58
2022-10-22T12:45:49.448Z,98148.52
2022-10-22T12:48:23.941Z,98145.88
2022-10-22T12:50:59.832Z,98144.56
2022-10-22T12:53:33.605Z,98144.80
2022-10-22T12:56:06.201Z,98143.01
2022-10-22T12:58:39.869Z,98142.20
2022-10-22T13:01:06.775Z,98136.41
2022-10-22T13:03:41.838Z,98134.08
2022-10-22T13:06:23.383Z,98142.89
2022-10-22T13:09:04.114Z,98146.77
2022-10-22T13:11:38.222Z,98143.13
2022-10-22T13:14:15.877Z,98147.02
2022-10-22T13:16:42.418Z,98146.04
2022-10-22T13:19:37.734Z,98147.89
2022-10-22T13:22:04.581Z,98152.68
2022-10-22T13:24:31.142Z,98156.77
2022-10-22T13:26:57.968Z,98155.24
2022-10-22T13:29:30.142Z,98151.59
2022-10-22T13:31:56.684Z,98148.79
2022-10-22T13:34:25.629Z,98151.83
2022-10-22T13:36:52.839Z,98157.15
2022-10-22T13:39:21.968Z,98150.84
2022-10-22T13:41:48.990Z,98147.73
2022-10-22T13:44:15.630Z,98142.61
2022-10-22T13:46:42.476Z,98144.52
2022-10-22T13:49:21.030Z,98151.50
2022-10-22T13:51:47.990Z,98151.13
2022-10-22T13:54:18.223Z,98156.66
2022-10-22T13:56:45.203Z,98157.36
2022-10-22T13:59:11.785Z,98154.30
2022-10-22T14:01:39.221Z,98150.02
2022-10-22T14:04:08.351Z,98151.84
2022-10-22T14:09:13.799Z,98149.35
2022-10-22T14:11:40.447Z,98147.02
2022-10-22T14:14:06.985Z,98147.87
2022-10-22T14:16:33.630Z,98150.77
2022-10-22T14:19:02.131Z,98148.38
2022-10-22T14:21:37.071Z,98150.05
2022-10-22T14:24:06.083Z,98149.18
2022-10-22T14:26:35.067Z,98143.13
2022-10-22T14:29:09.365Z,98149.13
2022-10-22T14:31:42.037Z,98143.88
2022-10-22T14:34:14.277Z,98141.48
2022-10-22T14:36:41.028Z,98143.88
2022-10-22T14:39:07.531Z,98148.38
2022-10-22T14:41:34.496Z,98144.85
2022-10-22T14:44:01.106Z,98140.85
2022-10-22T14:46:27.761Z,98141.73
2022-10-22T14:48:54.405Z,98138.09
2022-10-22T14:51:21.984Z,98136.80
2022-10-22T14:53:48.993Z,98134.88
2022-10-22T14:56:18.804Z,98131.93
2022-10-22T14:58:45.503Z,98131.77
2022-10-22T15:01:12.222Z,98132.52
2022-10-22T15:03:38.994Z,98131.91
2022-10-22T15:06:05.846Z,98133.62
2022-10-22T15:08:32.530Z,98130.70
2022-10-22T15:11:11.575Z,98131.65
2022-10-22T15:13:38.844Z,98127.25
2022-10-22T15:16:07.161Z,98126.31
2022-10-22T15:18:33.797Z,98126.22
2022-10-22T15:21:03.535Z,98121.96
2022-10-22T15:23:30.774Z,98120.01
2022-10-22T15:25:58.132Z,98121.68
2022-10-22T15:28:25.676Z,98126.68
2022-10-22T15:30:54.283Z,98130.34
2022-10-22T15:33:21.030Z,98132.64
2022-10-22T15:35:47.610Z,98132.59
2022-10-22T15:38:14.218Z,98131.29
2022-10-22T15:40:40.768Z,98137.52
2022-10-22T15:43:07.516Z,98140.36
2022-10-22T15:45:34.256Z,98139.20
2022-10-22T15:48:01.002Z,98139.58
2022-10-22T15:50:27.546Z,98142.20
2022-10-22T15:52:54.161Z,98141.89
2022-10-22T15:55:20.931Z,98139.59
2022-10-22T15:57:47.573Z,98140.55
2022-10-22T16:00:14.828Z,98144.16
2022-10-22T16:02:41.472Z,98150.56
2022-10-22T16:05:08.834Z,98158.33
2022-10-22T16:07:35.376Z,98160.80
2022-10-22T16:10:02.029Z,98161.27
2022-10-22T16:12:28.559Z,98161.45
2022-10-22T16:14:55.096Z,98164.38
2022-10-22T16:17:21.844Z,98158.86
2022-10-22T16:19:48.688Z,98163.02
2022-10-22T16:22:15.330Z,98163.23
2022-10-22T16:24:41.982Z,98164.82
2022-10-22T16:27:09.862Z,98167.08
2022-10-22T16:29:39.365Z,98170.58
2022-10-22T16:32:06.758Z,98174.13
2022-10-22T16:34:33.572Z,98177.48
2022-10-22T16:37:00.425Z,98175.91
2022-10-22T16:39:27.068Z,98177.39
2022-10-22T16:41:53.712Z,98180.80
2022-10-22T16:44:20.356Z,98185.58
2022-10-22T16:46:47.088Z,98186.40
2022-10-22T16:49:13.747Z,98188.06
2022-10-22T16:51:40.445Z,98186.09
2022-10-22T16:54:09.865Z,98186.09
2022-10-22T16:56:39.000Z,98189.59
2022-10-22T16:59:06.463Z,98189.11
2022-10-22T17:01:36.737Z,98191.79
2022-10-22T17:04:06.507Z,98202.04
2022-10-22T17:06:33.157Z,98198.83
2022-10-22T17:08:59.835Z,98197.64
2022-10-22T17:11:26.853Z,98198.16
2022-10-22T17:13:54.453Z,98199.74
2022-10-22T17:16:23.782Z,98196.83
2022-10-22T17:18:50.796Z,98195.47
2022-10-22T17:21:18.688Z,98200.05
2022-10-22T17:23:46.423Z,98198.16
2022-10-22T17:26:19.414Z,98199.09
2022-10-22T17:28:46.161Z,98198.77
2022-10-22T17:31:27.754Z,98189.58
2022-10-22T17:33:56.149Z,98201.21
2022-10-22T17:36:24.452Z,98201.34
2022-10-22T17:38:55.622Z,98200.92
2022-10-22T17:41:24.797Z,98205.61
2022-10-22T17:43:51.629Z,98208.44
2022-10-22T17:46:21.577Z,98210.35
2022-10-22T17:48:59.924Z,98208.08
2022-10-22T17:51:28.653Z,98206.66
2022-10-22T17:53:55.294Z,98212.05
2022-10-22T17:56:24.393Z,98216.69
2022-10-22T17:58:52.043Z,98215.55
2022-10-22T18:01:31.204Z,98219.53
2022-10-22T18:04:04.805Z,98215.87
2022-10-22T18:06:32.676Z,98210.87
2022-10-22T18:08:59.213Z,98215.45
2022-10-22T18:11:27.714Z,98224.26
2022-10-22T18:13:56.925Z,98227.60
2022-10-22T18:16:25.023Z,98226.63
2022-10-22T18:18:54.321Z,98225.55
2022-10-22T18:21:22.877Z,98228.34
2022-10-22T18:23:49.721Z,98230.38
2022-10-22T18:26:18.423Z,98231.95
2022-10-22T18:28:46.948Z,98228.77
2022-10-22T18:31:17.354Z,98224.26
2022-10-22T18:33:43.900Z,98227.30
2022-10-22T18:36:15.019Z,98230.38
2022-10-22T18:38:41.823Z,98228.09
2022-10-22T18:41:10.059Z,98230.42
2022-10-22T18:43:37.202Z,98235.44
2022-10-22T18:46:08.248Z,98239.33
2022-10-22T18:48:36.662Z,98236.68
2022-10-22T18:51:06.466Z,98241.87
2022-10-22T18:53:33.809Z,98246.63
2022-10-22T18:56:00.453Z,98247.01
2022-10-22T18:58:26.885Z,98247.95
2022-10-22T19:00:53.388Z,98250.27
2022-10-22T19:03:19.956Z,98252.38
2022-10-22T19:05:51.642Z,98250.98
2022-10-22T19:08:19.089Z,98254.88
2022-10-22T19:10:46.789Z,98258.02
2022-10-22T19:13:15.813Z,98250.15
2022-10-22T19:15:42.508Z,98247.52
2022-10-22T19:18:09.027Z,98249.23
2022-10-22T19:20:36.693Z,98255.14
2022-10-22T19:23:04.163Z,98262.55
2022-10-22T19:25:30.691Z,98267.48
2022-10-22T19:27:57.128Z,98266.02
2022-10-22T19:30:23.561Z,98265.60
2022-10-22T19:32:50.511Z,98266.31
2022-10-22T19:35:17.568Z,98260.27
2022-10-22T19:37:48.314Z,98258.56
2022-10-22T19:40:15.646Z,98260.33
2022-10-22T19:42:42.603Z,98259.96
2022-10-22T19:45:09.868Z,98261.95
2022-10-22T19:47:36.535Z,98266.18
2022-10-22T19:50:03.152Z,98270.64
2022-10-22T19:52:29.699Z,98270.66
2022-10-22T19:54:56.248Z,98274.78
2022-10-22T19:57:22.658Z,98278.60
2022-10-22T19:59:49.226Z,98282.70
2022-10-22T20:02:17.702Z,98287.02
2022-10-22T20:04:49.113Z,98289.24
2022-10-22T20:07:16.833Z,98291.30
2022-10-22T20:09:43.493Z,98293.23
2022-10-22T20:12:10.021Z,98295.52
2022-10-22T20:14:36.580Z,98298.93
2022-10-22T20:17:03.200Z,98297.91
2022-10-22T20:19:29.651Z,98294.66
2022-10-22T20:21:56.258Z,98299.25
2022-10-22T20:24:22.927Z,98304.02
2022-10-22T20:26:49.462Z,98302.94
2022-10-22T20:29:16.411Z,98302.08
2022-10-22T20:31:42.950Z,98306.09
2022-10-22T20:34:09.901Z,98306.25
2022-10-22T20:36:36.445Z,98305.56
2022-10-22T20:39:08.138Z,98309.23
2022-10-22T20:41:35.227Z,98308.73
2022-10-22T20:44:02.123Z,98308.46
2022-10-22T20:46:31.409Z,98311.77
2022-10-22T20:49:04.313Z,98311.24
2022-10-22T20:51:31.358Z,98319.16
2022-10-22T20:53:58.006Z,98320.98
2022-10-22T20:56:24.768Z,98322.52
2022-10-22T20:58:51.600Z,98323.35
2022-10-22T21:01:20.127Z,98321.84
2022-10-22T21:03:48.068Z,98324.73
2022-10-22T21:06:14.718Z,98323.84
2022-10-22T21:08:41.167Z,98329.30
2022-10-22T21:11:07.608Z,98328.38
2022-10-22T21:13:34.962Z,98329.84
2022-10-22T21:16:11.192Z,98335.08
2022-10-22T21:18:37.874Z,98336.34
2022-10-22T21:21:08.602Z,98336.23
2022-10-22T21:23:36.219Z,98341.67
2022-10-22T21:26:03.034Z,98341.46
2022-10-22T21:30:57.003Z,98346.24
2022-10-22T21:33:23.649Z,98347.30
2022-10-22T21:35:52.335Z,98343.65
2022-10-22T21:38:19.227Z,98344.17
2022-10-22T21:40:46.567Z,98345.58
2022-10-22T21:43:13.795Z,98348.70
2022-10-22T21:45:40.348Z,98348.36
2022-10-22T21:48:07.332Z,98345.41
2022-10-22T21:50:33.820Z,98340.02
2022-10-22T21:53:00.364Z,98338.25
2022-10-22T21:55:26.806Z,98341.49
2022-10-22T21:57:53.342Z,98342.09
2022-10-22T22:00:21.527Z,98343.57
2022-10-22T22:02:48.370Z,98344.31
2022-10-22T22:05:16.650Z,98348.42
2022-10-22T22:07:43.275Z,98350.69
2022-10-22T22:10:09.828Z,98351.78
2022-10-22T22:12:36.264Z,98355.23
2022-10-22T22:15:03.006Z,98353.24
2022-10-22T22:17:29.469Z,98355.44
2022-10-22T22:19:56.187Z,98352.73
2022-10-22T22:22:22.953Z,98353.72
2022-10-22T22:24:49.392Z,98353.83
2022-10-22T22:27:15.942Z,98351.63
2022-10-22T22:29:42.614Z,98351.44
2022-10-22T22:32:09.559Z,98350.16
2022-10-22T22:34:36.778Z,98351.89
2022-10-22T22:37:03.306Z,98348.38
2022-10-22T22:39:29.841Z,98352.64
2022-10-22T22:41:56.279Z,98357.87
2022-10-22T22:44:22.819Z,98363.80
2022-10-22T22:46:49.460Z,98368.45
2022-10-22T22:49:15.900Z,98368.73
2022-10-22T22:51:42.393Z,98368.85
2022-10-22T22:54:09.964Z,98370.55
2022-10-22T22:56:37.158Z,98367.80
2022-10-22T22:59:05.345Z,98366.89
2022-10-22T23:01:37.005Z,98371.64
2022-10-22T23:04:06.749Z,98369.89
2022-10-22T23:06:35.840Z,98364.52
2022-10-22T23:09:07.240Z,98364.99
2022-10-22T23:11:34.732Z,98367.02
2022-10-22T23:14:03.910Z,98369.31
2022-10-22T23:16:32.863Z,98374.42
2022-10-22T23:19:01.149Z,98375.23
2022-10-22T23:21:39.431Z,98374.15
2022-10-22T23:24:09.234Z,98379.30
2022-10-22T23:26:38.115Z,98384.35
2022-10-22T23:29:11.076Z,98382.49
2022-10-22T23:31:37.774Z,98386.73
2022-10-22T23:34:07.043Z,98393.36
2022-10-22T23:36:35.284Z,98393.66
2022-10-22T23:39:05.557Z,98393.02
2022-10-22T23:41:32.247Z,98395.77
2022-10-22T23:43:59.081Z,98402.39
2022-10-22T23:46:25.745Z,98406.30
2022-10-22T23:48:52.261Z,98407.61
2022-10-22T23:51:18.797Z,98412.27
2022-10-22T23:53:46.055Z,98408.96
2022-10-22T23:56:18.128Z,98416.35
2022-10-22T23:58:45.274Z,98418.55
